< < Back
Terminal Aerodrome Forecast


Current Version              Previous Versions:   1  2  3  4  5  6  7  8  9  

Terminal Aerodrome Forecast

835
FTUS44 KMOB 271738
TAFPNS
TAF
KPNS 271738Z 2718/2818 26005KT P6SM VCTS BKN020CB BKN030
      TEMPO 2721/2801 4SM TSRA BKN020CB
     FM280300 VRB03KT P6SM SCT100 BKN200
     FM281500 18005KT P6SM BKN050=

Latest METAR

172
SAUS70 KWBC 280200 RRF
MTRPNS
METAR KPNS 280153Z 31005KT 10SM CLR 28/23 A3001 RMK AO2 SLP162
T02830228


USA.gov is the U.S. government's official web portal to all federal, state and local government web resources and services.